Time;durP1;ratioP1;P1;durP2;ratioP2;P2;SDS_P1;SDS_P2;PMS_P1;PMS_P2;Temp;Humidity;BMP_temperature;BMP_pressure;BME280_temperature;BME280_humidity;BME280_pressure;Samples;Min_cycle;Max_cycle;Signal;HPM_P1;HPM_P2
2021/05/21 00:00:25;;;;;;;7.80;4.22;;;14.20;95.70;;;;;;5011019;28;20116;-71
2021/05/21 00:02:51;;;;;;;8.40;4.15;;;14.10;95.50;;;;;;5012401;28;20025;-73
2021/05/21 00:05:17;;;;;;;8.23;4.20;;;14.10;95.40;;;;;;5010851;28;20053;-71
2021/05/21 00:07:42;;;;;;;4.35;3.22;;;14.10;95.30;;;;;;5011072;28;20160;-72
2021/05/21 00:10:08;;;;;;;9.43;4.30;;;14.10;95.40;;;;;;5010895;28;20091;-72
2021/05/21 00:12:34;;;;;;;8.35;3.40;;;14.10;95.30;;;;;;5009953;28;20053;-70
2021/05/21 00:14:59;;;;;;;4.68;3.20;;;14.10;95.20;;;;;;5010698;28;20018;-72
2021/05/21 00:17:25;;;;;;;6.95;3.35;;;14.00;95.20;;;;;;5012280;28;20030;-72
2021/05/21 00:19:51;;;;;;;4.35;3.10;;;14.10;95.10;;;;;;5009476;28;20034;-72
2021/05/21 00:22:17;;;;;;;4.43;2.70;;;14.10;95.10;;;;;;5025684;28;20033;-73
2021/05/21 00:24:42;;;;;;;3.40;2.67;;;14.10;95.10;;;;;;5010350;28;20060;-72
2021/05/21 00:27:08;;;;;;;5.72;2.80;;;14.10;95.20;;;;;;5010332;28;20052;-72
2021/05/21 00:29:33;;;;;;;3.20;2.55;;;14.10;94.90;;;;;;5012043;28;20353;-71
2021/05/21 00:31:59;;;;;;;4.40;2.90;;;14.10;94.70;;;;;;5010312;28;20092;-71
2021/05/21 00:34:26;;;;;;;3.25;2.40;;;14.10;94.70;;;;;;5010303;28;20034;-71
2021/05/21 00:36:52;;;;;;;4.72;2.78;;;14.10;94.40;;;;;;5010186;28;20034;-71
2021/05/21 00:39:19;;;;;;;2.45;1.80;;;14.10;94.10;;;;;;5010202;28;20046;-72
2021/05/21 00:41:45;;;;;;;5.25;2.22;;;14.10;93.70;;;;;;5011918;28;20406;-71
2021/05/21 00:44:11;;;;;;;2.22;1.60;;;14.10;93.60;;;;;;5010108;28;20062;-73
2021/05/21 00:46:37;;;;;;;2.25;1.73;;;14.10;93.70;;;;;;5010285;28;20081;-72
2021/05/21 00:49:03;;;;;;;4.65;2.03;;;14.10;93.30;;;;;;5010219;28;20054;-72
2021/05/21 00:51:28;;;;;;;4.00;1.85;;;14.20;93.20;;;;;;5009500;28;20100;-73
2021/05/21 00:53:54;;;;;;;2.53;1.95;;;14.20;93.00;;;;;;5011633;28;20033;-72
2021/05/21 00:56:20;;;;;;;3.72;1.33;;;14.20;92.90;;;;;;5009980;28;20072;-72
2021/05/21 00:58:46;;;;;;;2.03;1.20;;;14.20;93.00;;;;;;5009659;28;20065;-72
2021/05/21 01:01:11;;;;;;;2.90;1.70;;;14.20;92.90;;;;;;5009926;28;20030;-72
2021/05/21 01:03:39;;;;;;;2.22;1.40;;;14.20;92.60;;;;;;5025201;28;20042;-73
2021/05/21 01:06:05;;;;;;;2.63;1.50;;;14.20;92.70;;;;;;5025270;28;20026;-72
2021/05/21 01:08:32;;;;;;;1.83;1.38;;;14.30;92.60;;;;;;5011448;28;20391;-72
2021/05/21 01:10:57;;;;;;;9.45;1.48;;;14.30;92.60;;;;;;5009645;28;20482;-72
2021/05/21 01:13:23;;;;;;;2.00;1.40;;;14.30;92.60;;;;;;5009543;28;20042;-72
2021/05/21 01:15:48;;;;;;;4.25;1.98;;;14.20;93.30;;;;;;5009673;28;20120;-72
2021/05/21 01:18:14;;;;;;;3.30;1.85;;;14.20;93.90;;;;;;5009769;28;20029;-72
2021/05/21 01:20:40;;;;;;;1.55;1.42;;;14.30;94.80;;;;;;5026835;28;20022;-73
2021/05/21 01:23:06;;;;;;;2.25;1.50;;;14.20;95.00;;;;;;5009930;28;20471;-73
2021/05/21 01:25:34;;;;;;;2.65;1.60;;;14.20;94.40;;;;;;5009141;28;20088;-72
2021/05/21 01:28:00;;;;;;;4.78;1.55;;;14.10;93.80;;;;;;5009836;28;20478;-72
2021/05/21 01:30:27;;;;;;;5.95;1.50;;;14.20;94.10;;;;;;5009478;28;20049;-72
2021/05/21 01:32:54;;;;;;;2.80;1.50;;;14.20;93.70;;;;;;5011183;28;20018;-72
2021/05/21 01:35:20;;;;;;;4.30;1.50;;;14.20;93.40;;;;;;5009538;28;20060;-72
2021/05/21 01:37:48;;;;;;;2.53;1.10;;;14.20;93.20;;;;;;5009935;28;20044;-72
2021/05/21 01:40:15;;;;;;;2.30;1.33;;;14.20;93.30;;;;;;5009458;28;20058;-72
2021/05/21 01:42:41;;;;;;;1.23;1.13;;;14.10;93.60;;;;;;5009393;28;20364;-72
2021/05/21 01:45:09;;;;;;;3.25;1.42;;;14.20;93.40;;;;;;5009316;28;20022;-72
2021/05/21 01:47:35;;;;;;;4.60;1.40;;;14.20;93.50;;;;;;5011297;28;20499;-72
2021/05/21 01:50:02;;;;;;;2.13;1.40;;;14.20;93.40;;;;;;5009613;28;20156;-72
2021/05/21 01:52:27;;;;;;;3.23;1.27;;;14.10;93.30;;;;;;5009514;28;20067;-71
2021/05/21 01:54:53;;;;;;;2.83;1.05;;;14.10;93.10;;;;;;5009558;28;20080;-73
2021/05/21 01:57:18;;;;;;;3.70;1.30;;;14.20;92.90;;;;;;5009195;28;20029;-72
2021/05/21 01:59:44;;;;;;;3.45;0.88;;;14.20;93.00;;;;;;5011102;28;20030;-73
2021/05/21 02:02:10;;;;;;;5.35;1.00;;;14.20;92.60;;;;;;5025087;28;20030;-72
2021/05/21 02:04:39;;;;;;;2.05;1.20;;;14.20;92.80;;;;;;5013351;28;20038;-72
2021/05/21 02:07:07;;;;;;;2.78;1.23;;;14.20;92.70;;;;;;5028440;28;20041;-73
2021/05/21 02:09:42;;;;;;;5.35;1.42;;;14.20;92.60;;;;;;5013787;28;20056;-72
2021/05/21 02:12:08;;;;;;;3.55;1.13;;;14.20;92.60;;;;;;5013816;28;20057;-72
2021/05/21 02:14:33;;;;;;;4.97;1.35;;;14.20;92.50;;;;;;5014549;28;20451;-72
2021/05/21 02:16:59;;;;;;;1.63;1.33;;;14.30;92.60;;;;;;5028035;28;20638;-72
2021/05/21 02:19:25;;;;;;;3.10;1.10;;;14.20;92.30;;;;;;5012871;28;20577;-73
2021/05/21 02:21:51;;;;;;;3.03;0.82;;;14.20;92.20;;;;;;5012880;28;20033;-73
2021/05/21 02:24:16;;;;;;;2.85;1.10;;;14.20;92.20;;;;;;5012672;28;20061;-73
2021/05/21 02:26:42;;;;;;;1.65;0.93;;;14.20;92.10;;;;;;5029699;28;20526;-72
2021/05/21 02:29:09;;;;;;;1.58;1.10;;;14.20;92.10;;;;;;5013051;28;20388;-72
2021/05/21 02:31:35;;;;;;;3.13;1.00;;;14.20;92.10;;;;;;5012414;28;20452;-73
2021/05/21 02:34:01;;;;;;;1.67;0.90;;;14.20;92.10;;;;;;5012360;28;20080;-72
2021/05/21 02:36:26;;;;;;;4.28;0.98;;;14.20;92.10;;;;;;5012730;28;20026;-71
2021/05/21 02:38:52;;;;;;;1.77;1.05;;;14.30;92.10;;;;;;5029514;28;20117;-72
2021/05/21 02:41:18;;;;;;;1.95;0.90;;;14.30;92.00;;;;;;5012579;28;20045;-71
2021/05/21 02:43:44;;;;;;;1.98;0.98;;;14.30;92.00;;;;;;5012522;28;20052;-72
2021/05/21 02:46:10;;;;;;;1.25;0.90;;;14.30;91.90;;;;;;5012613;28;20108;-73
2021/05/21 02:48:35;;;;;;;1.38;1.10;;;14.30;91.90;;;;;;5012465;28;20046;-71
2021/05/21 02:51:01;;;;;;;7.25;1.20;;;14.30;91.90;;;;;;5012431;28;20057;-73
2021/05/21 02:53:27;;;;;;;2.15;1.10;;;14.30;92.10;;;;;;5013810;28;20105;-72
2021/05/21 02:55:53;;;;;;;2.42;1.10;;;14.30;91.90;;;;;;5011346;28;20245;-71
2021/05/21 02:58:20;;;;;;;2.03;1.00;;;14.40;92.00;;;;;;5012093;28;20061;-73
2021/05/21 03:00:45;;;;;;;2.90;0.80;;;14.30;91.90;;;;;;5012065;28;20267;-73
2021/05/21 03:03:11;;;;;;;1.67;0.93;;;14.40;91.90;;;;;;5011954;28;20030;-72
2021/05/21 03:05:37;;;;;;;6.68;1.05;;;14.40;91.90;;;;;;5013903;28;20024;-72
2021/05/21 03:08:03;;;;;;;1.20;0.82;;;14.40;91.90;;;;;;5011998;28;20547;-71
2021/05/21 03:10:29;;;;;;;2.15;0.82;;;14.40;91.80;;;;;;5027171;28;20064;-72
2021/05/21 03:12:55;;;;;;;2.47;1.17;;;14.40;91.80;;;;;;5011862;28;20032;-72
2021/05/21 03:15:23;;;;;;;2.25;0.90;;;14.30;91.90;;;;;;5026485;28;20034;-72
2021/05/21 03:17:49;;;;;;;5.43;0.93;;;14.30;91.80;;;;;;5013257;28;20080;-72
2021/05/21 03:20:16;;;;;;;3.28;1.02;;;14.40;91.90;;;;;;5011823;28;20042;-71
2021/05/21 03:22:42;;;;;;;3.03;0.95;;;14.40;91.90;;;;;;5027460;28;20502;-73
2021/05/21 03:25:08;;;;;;;2.33;1.02;;;14.40;91.80;;;;;;5026751;28;20065;-72
2021/05/21 03:27:35;;;;;;;0.82;0.63;;;14.30;91.80;;;;;;5011441;28;20199;-73
2021/05/21 03:30:01;;;;;;;2.58;0.95;;;14.40;91.80;;;;;;5011436;28;20033;-73
2021/05/21 03:32:27;;;;;;;0.80;0.80;;;14.40;91.80;;;;;;5013064;28;20109;-73
2021/05/21 03:34:53;;;;;;;1.90;0.85;;;14.30;91.80;;;;;;5027121;28;20610;-72
2021/05/21 03:37:19;;;;;;;1.75;0.75;;;14.40;91.70;;;;;;5026733;28;20045;-73
2021/05/21 03:39:45;;;;;;;2.67;1.00;;;14.40;91.80;;;;;;5011650;28;20030;-71
2021/05/21 03:42:11;;;;;;;4.72;1.17;;;14.40;91.70;;;;;;5011152;28;20109;-72
2021/05/21 03:44:37;;;;;;;2.03;0.60;;;14.40;91.80;;;;;;5012876;28;20029;-73
2021/05/21 03:47:03;;;;;;;3.42;0.80;;;14.40;91.80;;;;;;5010949;28;20188;-73
2021/05/21 03:49:29;;;;;;;1.55;0.80;;;14.40;91.80;;;;;;5011015;28;20123;-73
2021/05/21 03:51:56;;;;;;;1.45;0.73;;;14.40;91.80;;;;;;5026842;28;20037;-72
2021/05/21 03:54:22;;;;;;;3.35;1.10;;;14.40;91.50;;;;;;5010171;28;20084;-73
2021/05/21 03:56:48;;;;;;;1.83;1.02;;;14.40;91.50;;;;;;5028452;28;20037;-72
2021/05/21 03:59:14;;;;;;;1.17;0.90;;;14.50;91.60;;;;;;5010565;28;20140;-72
2021/05/21 04:01:40;;;;;;;2.75;0.93;;;14.50;91.60;;;;;;5011172;28;20165;-72
2021/05/21 04:04:06;;;;;;;3.30;0.90;;;14.50;91.60;;;;;;5010768;28;20053;-72
2021/05/21 04:06:32;;;;;;;1.40;0.90;;;14.50;91.60;;;;;;5025930;28;20467;-71
2021/05/21 04:09:06;;;;;;;1.60;1.00;;;14.50;91.50;;;;;;5011048;28;20037;-71
2021/05/21 04:11:38;;;;;;;1.73;1.10;;;14.50;91.50;;;;;;5012372;28;20105;-72
2021/05/21 04:14:05;;;;;;;1.55;0.82;;;14.50;91.50;;;;;;5010587;28;20037;-72
2021/05/21 04:16:32;;;;;;;4.60;1.10;;;14.50;91.40;;;;;;5010466;28;20042;-72
2021/05/21 04:18:58;;;;;;;1.52;0.85;;;14.50;91.30;;;;;;5010565;28;20029;-72
2021/05/21 04:21:24;;;;;;;4.10;1.20;;;14.60;91.40;;;;;;5026282;28;20034;-73
2021/05/21 04:23:50;;;;;;;2.13;1.08;;;14.50;91.60;;;;;;5027651;28;20033;-72
2021/05/21 04:26:16;;;;;;;2.38;0.90;;;14.60;91.40;;;;;;5009332;28;20078;-72
2021/05/21 04:28:43;;;;;;;4.25;1.10;;;14.50;91.50;;;;;;5010133;28;20026;-71
2021/05/21 04:31:08;;;;;;;1.52;1.00;;;14.60;91.40;;;;;;5010342;28;20117;-71
2021/05/21 04:33:35;;;;;;;1.92;0.95;;;14.60;91.40;;;;;;5010194;28;20122;-73
2021/05/21 04:36:00;;;;;;;1.65;1.10;;;14.60;91.40;;;;;;5010549;28;20026;-73
2021/05/21 04:38:27;;;;;;;3.00;1.17;;;14.60;91.40;;;;;;5011792;28;20037;-73
2021/05/21 04:40:53;;;;;;;2.65;1.10;;;14.60;91.40;;;;;;5010201;28;20042;-72
2021/05/21 04:43:23;;;;;;;5.70;1.13;;;14.70;91.60;;;;;;5025198;28;20133;-73
2021/05/21 04:45:49;;;;;;;3.78;1.17;;;14.70;91.40;;;;;;5010313;28;20125;-74
2021/05/21 04:48:15;;;;;;;1.27;0.88;;;14.70;91.30;;;;;;5009805;28;20121;-74
2021/05/21 04:50:41;;;;;;;1.83;0.95;;;14.80;91.20;;;;;;5012267;28;20272;-73
2021/05/21 04:53:07;;;;;;;7.75;1.05;;;14.80;91.30;;;;;;5010067;28;20064;-72
2021/05/21 04:55:33;;;;;;;3.53;0.90;;;14.80;91.20;;;;;;5010105;28;20500;-73
2021/05/21 04:57:58;;;;;;;2.13;0.93;;;14.80;91.20;;;;;;5010028;28;20066;-72
2021/05/21 05:00:24;;;;;;;0.70;0.70;;;14.90;91.10;;;;;;5009585;28;20111;-72
2021/05/21 05:02:49;;;;;;;1.35;0.68;;;14.80;91.20;;;;;;5011609;28;20097;-72
2021/05/21 05:05:15;;;;;;;0.93;0.82;;;14.90;91.20;;;;;;5009694;28;20060;-71
2021/05/21 05:07:41;;;;;;;6.55;1.05;;;14.90;91.10;;;;;;5009959;28;20033;-71
2021/05/21 05:10:06;;;;;;;1.88;1.02;;;14.90;91.20;;;;;;5025061;28;20049;-73
2021/05/21 05:12:32;;;;;;;1.02;0.77;;;15.00;91.20;;;;;;5009732;28;20096;-73
2021/05/21 05:14:58;;;;;;;2.78;0.98;;;15.00;91.00;;;;;;5009970;28;20064;-74
2021/05/21 05:17:23;;;;;;;0.90;0.80;;;15.00;90.90;;;;;;5011169;28;20041;-73
2021/05/21 05:19:49;;;;;;;0.70;0.70;;;15.10;91.00;;;;;;5008716;28;20038;-73
2021/05/21 05:22:15;;;;;;;1.48;1.10;;;15.10;90.90;;;;;;5009296;28;20471;-74
2021/05/21 05:24:40;;;;;;;5.05;1.23;;;15.10;90.80;;;;;;5009270;28;20062;-73
2021/05/21 05:27:06;;;;;;;5.90;1.00;;;15.20;90.90;;;;;;5009573;28;20117;-76
2021/05/21 05:29:35;;;;;;;0.80;0.75;;;15.20;90.80;;;;;;5010991;28;20026;-72
2021/05/21 05:32:02;;;;;;;1.65;0.70;;;15.30;90.70;;;;;;5009439;28;20456;-72
2021/05/21 05:34:27;;;;;;;1.40;1.00;;;15.30;90.70;;;;;;5009828;28;20424;-72
2021/05/21 05:36:54;;;;;;;5.38;0.90;;;15.40;90.60;;;;;;5009561;28;20117;-72
2021/05/21 05:39:20;;;;;;;1.40;0.95;;;15.40;90.70;;;;;;5009014;28;20108;-75
2021/05/21 05:41:49;;;;;;;5.45;1.15;;;15.60;90.50;;;;;;5012435;28;20056;-86
2021/05/21 05:44:16;;;;;;;4.35;0.77;;;15.80;90.20;;;;;;5012217;28;20038;-79
2021/05/21 05:46:42;;;;;;;4.93;0.90;;;16.00;90.10;;;;;;5012348;28;20042;-85
2021/05/21 05:49:07;;;;;;;3.28;0.77;;;16.00;89.40;;;;;;5014192;28;20034;-85
2021/05/21 05:51:33;;;;;;;1.27;0.77;;;16.20;90.00;;;;;;5028691;28;20122;-85
2021/05/21 05:53:58;;;;;;;2.15;0.60;;;16.40;89.60;;;;;;5013048;28;20033;-81
2021/05/21 05:56:24;;;;;;;4.13;0.75;;;16.60;88.60;;;;;;5015658;28;20037;-88
2021/05/21 05:58:51;;;;;;;4.60;1.48;;;16.80;87.90;;;;;;5029355;28;20025;-88
2021/05/21 06:01:16;;;;;;;2.55;0.90;;;16.90;87.40;;;;;;5002074;28;20065;-85
2021/05/21 06:03:42;;;;;;;4.90;0.88;;;16.90;87.00;;;;;;5028111;28;20503;-86
2021/05/21 06:06:07;;;;;;;1.95;0.88;;;16.80;86.80;;;;;;5013901;28;20042;-85
2021/05/21 06:08:34;;;;;;;3.50;0.80;;;16.80;86.70;;;;;;5011777;28;20022;-85
2021/05/21 06:11:00;;;;;;;3.75;0.90;;;16.60;86.30;;;;;;5010463;28;20460;-78
2021/05/21 06:13:27;;;;;;;8.45;2.67;;;16.60;86.70;;;;;;5024834;28;20053;-77
2021/05/21 06:15:53;;;;;;;4.05;1.15;;;16.70;86.80;;;;;;5024195;28;20108;-76
2021/05/21 06:18:19;;;;;;;2.80;1.13;;;16.60;86.80;;;;;;5009219;28;20424;-77
2021/05/21 06:20:45;;;;;;;4.47;2.15;;;16.50;86.60;;;;;;5011943;28;20568;-82
2021/05/21 06:23:10;;;;;;;2.78;1.35;;;16.60;87.00;;;;;;5011373;28;20042;-83
2021/05/21 06:28:22;;;;;;;;;;;16.50;87.20;;;;;;5010692;28;20031;-78
2021/05/21 06:30:52;;;;;;;4.05;1.13;;;16.40;87.50;;;;;;5010296;28;19924;-82
2021/05/21 06:33:18;;;;;;;3.65;1.00;;;16.40;87.40;;;;;;5024840;28;20042;-77
2021/05/21 06:35:43;;;;;;;8.43;1.65;;;16.40;87.60;;;;;;5011106;28;20022;-87
2021/05/21 06:38:19;;;;;;;2.63;0.98;;;16.40;87.40;;;;;;5009997;28;20415;-82
2021/05/21 06:40:45;;;;;;;7.00;0.80;;;16.30;87.30;;;;;;5009525;28;20417;-80
2021/05/21 06:43:14;;;;;;;5.32;1.17;;;16.30;87.40;;;;;;5024522;28;20073;-79
2021/05/21 06:45:41;;;;;;;3.40;0.68;;;16.30;87.10;;;;;;5008928;28;20053;-77
2021/05/21 06:48:08;;;;;;;2.75;0.82;;;16.40;87.20;;;;;;5008752;28;20076;-78
2021/05/21 06:50:34;;;;;;;0.88;0.50;;;16.50;87.00;;;;;;5012954;28;20030;-78
2021/05/21 06:53:00;;;;;;;5.05;1.05;;;16.60;86.70;;;;;;5012381;28;20499;-78
2021/05/21 06:55:26;;;;;;;2.80;1.13;;;16.70;86.50;;;;;;5012100;28;20117;-80
2021/05/21 06:57:52;;;;;;;2.88;0.90;;;16.70;86.10;;;;;;5011183;28;20053;-77
2021/05/21 07:00:18;;;;;;;4.70;1.20;;;16.80;85.70;;;;;;5011842;28;20691;-78
2021/05/21 07:02:44;;;;;;;2.90;0.77;;;16.90;85.20;;;;;;5013617;28;20022;-78
2021/05/21 07:05:12;;;;;;;4.05;1.45;;;17.20;85.00;;;;;;5014258;28;20121;-81
2021/05/21 07:07:42;;;;;;;;;;;17.30;84.40;;;;;;5014726;28;20495;-82
2021/05/21 07:10:09;;;;;;;2.55;1.35;;;17.40;83.60;;;;;;5012970;28;19925;-79
2021/05/21 07:12:35;;;;;;;3.50;1.05;;;17.60;83.70;;;;;;5028899;28;20034;-81
2021/05/21 07:15:01;;;;;;;6.60;0.80;;;17.70;82.70;;;;;;5013283;28;20077;-80
2021/05/21 07:17:27;;;;;;;2.45;0.68;;;17.90;82.50;;;;;;5013334;28;20037;-81
2021/05/21 07:19:53;;;;;;;6.57;0.90;;;18.10;81.70;;;;;;5012375;28;20079;-81
2021/05/21 07:22:19;;;;;;;2.90;0.73;;;18.30;81.50;;;;;;5028014;28;20456;-83
2021/05/21 07:24:45;;;;;;;3.55;1.02;;;18.60;81.10;;;;;;5011811;28;20054;-80
2021/05/21 07:27:11;;;;;;;2.65;0.90;;;18.80;80.20;;;;;;5012507;28;20466;-82
2021/05/21 07:29:37;;;;;;;2.25;0.80;;;18.80;78.70;;;;;;5017620;28;20018;-84
2021/05/21 07:32:02;;;;;;;4.18;0.80;;;18.80;78.80;;;;;;5022756;28;20034;-79
2021/05/21 07:34:28;;;;;;;4.10;0.85;;;18.70;78.80;;;;;;5035932;28;20070;-81
2021/05/21 07:36:54;;;;;;;10.00;1.15;;;18.80;79.10;;;;;;5028252;28;20571;-79
2021/05/21 07:39:20;;;;;;;8.80;1.10;;;19.00;77.10;;;;;;5029024;28;20040;-85
2021/05/21 07:41:46;;;;;;;2.95;0.90;;;19.00;77.70;;;;;;5030027;28;20108;-79
2021/05/21 07:44:11;;;;;;;2.20;0.90;;;19.10;77.50;;;;;;5013211;28;20053;-88
2021/05/21 07:46:37;;;;;;;4.70;0.90;;;19.30;76.50;;;;;;5028738;28;20608;-87
2021/05/21 07:49:04;;;;;;;8.35;1.92;;;19.90;76.60;;;;;;5013639;28;20498;-88
2021/05/21 07:51:33;;;;;;;8.90;1.40;;;19.90;73.90;;;;;;5013094;28;20045;-83
2021/05/21 07:54:00;;;;;;;3.15;1.25;;;20.10;73.60;;;;;;4997492;28;20037;-86
2021/05/21 07:56:26;;;;;;;3.65;1.58;;;20.20;74.20;;;;;;5013566;28;20045;-85
2021/05/21 07:58:51;;;;;;;5.28;1.30;;;20.40;73.20;;;;;;5012866;28;20026;-82
2021/05/21 08:01:17;;;;;;;5.95;1.80;;;20.50;72.40;;;;;;5026080;28;20067;-81
2021/05/21 08:03:43;;;;;;;3.60;0.90;;;20.80;70.80;;;;;;5011803;28;20049;-83
2021/05/21 08:06:08;;;;;;;2.55;1.15;;;20.10;70.00;;;;;;5026335;28;20053;-80
2021/05/21 08:08:34;;;;;;;6.78;0.77;;;20.10;72.00;;;;;;5012566;28;20403;-80
2021/05/21 08:11:02;;;;;;;2.60;1.02;;;20.40;69.80;;;;;;5026079;28;20042;-80
2021/05/21 08:13:28;;;;;;;2.70;0.88;;;21.10;70.80;;;;;;5010178;28;20077;-83
2021/05/21 08:15:53;;;;;;;2.85;0.85;;;21.50;67.80;;;;;;5010789;28;20038;-85
2021/05/21 08:18:19;;;;;;;4.05;0.95;;;21.70;67.00;;;;;;5026198;28;20040;-80
2021/05/21 08:20:49;;;;;;;4.63;0.82;;;21.80;67.40;;;;;;5012435;28;20058;-81
2021/05/21 08:23:16;;;;;;;3.20;0.80;;;21.80;66.00;;;;;;5010522;28;20038;-81
2021/05/21 08:25:44;;;;;;;3.97;1.10;;;21.00;65.10;;;;;;5010368;28;20503;-83
2021/05/21 08:28:11;;;;;;;8.68;2.17;;;20.80;66.20;;;;;;5010883;28;20538;-88
2021/05/21 08:30:37;;;;;;;6.65;1.98;;;20.60;66.50;;;;;;5026213;28;20423;-81
2021/05/21 08:33:03;;;;;;;3.55;1.00;;;20.30;67.20;;;;;;5010474;28;20022;-80
2021/05/21 08:35:30;;;;;;;6.65;1.20;;;20.00;68.10;;;;;;5027774;28;20468;-82
2021/05/21 08:37:56;;;;;;;2.75;0.90;;;20.20;69.00;;;;;;5010973;28;20123;-85
2021/05/21 08:40:26;;;;;;;6.60;1.13;;;20.30;69.30;;;;;;5025887;28;20134;-81
2021/05/21 08:42:58;;;;;;;4.18;1.27;;;21.50;69.90;;;;;;5025705;28;20492;-81
2021/05/21 08:45:30;;;;;;;6.53;1.63;;;21.90;65.10;;;;;;5010534;28;20471;-86
2021/05/21 08:47:58;;;;;;;6.35;1.45;;;22.80;65.20;;;;;;5027793;28;20057;-83
2021/05/21 08:50:25;;;;;;;4.07;1.48;;;23.40;61.30;;;;;;5011050;28;20030;-82
2021/05/21 08:52:51;;;;;;;4.18;1.15;;;24.30;61.60;;;;;;5024979;28;20030;-82
2021/05/21 08:55:19;;;;;;;5.53;2.00;;;25.20;60.30;;;;;;5025165;28;20117;-82
2021/05/21 08:57:45;;;;;;;6.45;1.30;;;26.10;56.00;;;;;;5010096;28;20124;-82
2021/05/21 09:00:12;;;;;;;2.17;0.77;;;26.40;53.80;;;;;;5009820;28;20066;-84
2021/05/21 09:02:39;;;;;;;4.70;0.93;;;26.90;54.30;;;;;;5027701;28;20344;-82
2021/05/21 09:05:09;;;;;;;5.72;2.58;;;27.60;53.10;;;;;;5010783;28;20042;-85
2021/05/21 09:07:39;;;;;;;7.85;1.35;;;27.70;49.30;;;;;;5025534;28;20046;-85
2021/05/21 09:10:11;;;;;;;5.32;1.83;;;27.50;47.70;;;;;;5025032;28;20037;-82
2021/05/21 09:12:40;;;;;;;9.32;1.85;;;26.30;48.70;;;;;;5025578;28;20053;-84
2021/05/21 09:15:08;;;;;;;3.33;1.20;;;26.30;49.90;;;;;;5010197;28;20030;-84
2021/05/21 09:17:36;;;;;;;3.85;1.13;;;26.90;48.30;;;;;;5027317;28;20022;-80
2021/05/21 09:20:04;;;;;;;8.90;1.88;;;26.30;47.50;;;;;;5025265;28;20083;-81
2021/05/21 09:22:30;;;;;;;4.80;1.15;;;26.60;47.20;;;;;;5024483;28;20083;-82
2021/05/21 09:24:56;;;;;;;5.15;0.98;;;26.10;47.30;;;;;;5009642;28;20128;-85
2021/05/21 09:27:22;;;;;;;5.88;0.90;;;25.90;48.30;;;;;;5008754;28;20100;-80
2021/05/21 09:29:52;;;;;;;2.95;1.05;;;25.10;49.10;;;;;;5011221;28;20026;-86
2021/05/21 09:32:28;;;;;;;7.60;1.08;;;25.00;48.90;;;;;;5024646;28;20619;-84
2021/05/21 09:35:12;;;;;;;5.47;1.42;;;24.80;48.80;;;;;;5024766;28;20049;-82
2021/05/21 09:37:52;;;;;;;7.70;1.45;;;24.70;49.30;;;;;;5009505;28;20045;-78
2021/05/21 09:40:29;;;;;;;4.05;1.00;;;24.60;48.80;;;;;;5009144;28;20044;-83
2021/05/21 09:43:04;;;;;;;7.85;1.48;;;24.60;48.50;;;;;;5025197;28;20038;-83
2021/05/21 09:45:33;;;;;;;4.88;1.33;;;24.00;49.20;;;;;;5024683;28;20368;-81
2021/05/21 09:48:09;;;;;;;5.10;0.90;;;24.30;49.30;;;;;;5024816;28;20041;-85
2021/05/21 09:50:49;;;;;;;6.50;1.35;;;23.90;49.40;;;;;;5011917;28;20042;-82
2021/05/21 09:53:20;;;;;;;7.53;1.30;;;23.80;49.90;;;;;;5009511;28;20409;-79
2021/05/21 09:56:00;;;;;;;2.78;1.00;;;23.30;49.70;;;;;;5009818;28;20042;-79
2021/05/21 09:58:41;;;;;;;3.30;0.90;;;23.30;51.00;;;;;;5024887;28;20665;-81
2021/05/21 10:01:20;;;;;;;3.47;1.20;;;22.90;51.30;;;;;;5025449;28;20045;-82
2021/05/21 10:03:48;;;;;;;9.80;0.90;;;22.50;51.50;;;;;;5009787;28;20362;-84
2021/05/21 10:06:15;;;;;;;;;;;22.10;50.60;;;;;;5009258;28;20057;-80
2021/05/21 10:08:42;;;;;;;5.30;1.35;;;21.80;50.70;;;;;;5010156;28;19906;-84
2021/05/21 10:11:08;;;;;;;5.72;1.33;;;21.70;50.10;;;;;;5010111;28;20108;-83
2021/05/21 10:13:36;;;;;;;2.88;1.02;;;21.50;49.50;;;;;;5024398;28;20140;-84
2021/05/21 10:16:04;;;;;;;7.10;1.27;;;21.20;48.50;;;;;;5025823;28;20030;-80
2021/05/21 10:18:30;;;;;;;6.00;1.15;;;21.10;49.00;;;;;;5010132;28;20065;-82
2021/05/21 10:20:57;;;;;;;5.57;1.50;;;21.20;49.40;;;;;;5011751;28;20172;-85
2021/05/21 10:23:32;;;;;;;4.83;1.47;;;21.30;49.20;;;;;;5011040;28;20030;-82
2021/05/21 10:26:03;;;;;;;2.50;0.98;;;21.20;48.60;;;;;;5012949;28;20069;-80
2021/05/21 10:28:30;;;;;;;3.97;1.05;;;21.00;48.20;;;;;;5014444;28;20086;-85
2021/05/21 10:30:59;;;;;;;5.25;1.30;;;20.90;47.90;;;;;;5014291;28;20412;-86
2021/05/21 10:33:32;;;;;;;5.60;1.20;;;21.00;48.20;;;;;;5017911;28;20026;-89
2021/05/21 10:36:16;;;;;;;5.13;1.17;;;21.00;48.40;;;;;;5020232;28;20029;-76
2021/05/21 10:39:03;;;;;;;5.38;1.20;;;21.10;48.20;;;;;;5015850;28;20455;-77
2021/05/21 10:41:30;;;;;;;2.95;0.98;;;21.10;48.30;;;;;;5013758;28;20038;-76
2021/05/21 10:43:58;;;;;;;5.70;1.30;;;21.00;48.80;;;;;;5013573;28;20463;-75
2021/05/21 10:46:26;;;;;;;3.28;1.45;;;20.80;48.70;;;;;;5012658;28;20045;-75
2021/05/21 10:48:57;;;;;;;3.47;1.10;;;20.60;48.80;;;;;;5028123;28;20120;-76
2021/05/21 10:51:25;;;;;;;8.40;1.20;;;20.60;48.70;;;;;;5010165;28;20053;-75
2021/05/21 10:54:26;;;;;;;3.65;1.08;;;20.50;48.70;;;;;;5015001;28;20108;-85
2021/05/21 10:57:08;;;;;;;4.45;0.98;;;20.30;48.70;;;;;;5014000;28;20060;-85
2021/05/21 10:59:55;;;;;;;7.60;1.05;;;20.40;49.50;;;;;;5013542;28;20037;-83
2021/05/21 11:02:26;;;;;;;3.13;1.03;;;20.40;50.00;;;;;;5025478;28;20042;-77
2021/05/21 11:04:53;;;;;;;4.10;1.45;;;20.40;50.70;;;;;;5027716;28;20041;-75
2021/05/21 11:07:34;;;;;;;2.38;1.08;;;20.50;50.60;;;;;;5011580;28;20046;-77
2021/05/21 11:10:08;;;;;;;2.97;0.80;;;20.50;50.10;;;;;;5027537;28;20175;-79
2021/05/21 11:12:55;;;;;;;5.05;1.38;;;20.60;50.30;;;;;;5012229;28;20531;-77
2021/05/21 11:15:39;;;;;;;5.07;1.00;;;20.60;49.70;;;;;;5026662;28;20042;-78
2021/05/21 11:18:13;;;;;;;4.45;1.13;;;20.60;50.40;;;;;;5012086;28;20101;-77
2021/05/21 11:21:08;;;;;;;6.10;1.40;;;20.40;50.50;;;;;;5028962;28;20121;-76
2021/05/21 11:23:46;;;;;;;4.55;1.00;;;20.30;50.50;;;;;;5012067;28;20141;-80
2021/05/21 11:26:13;;;;;;;2.78;1.00;;;20.30;50.80;;;;;;5026789;28;20061;-80
2021/05/21 11:28:42;;;;;;;3.45;1.20;;;20.30;51.30;;;;;;5011555;28;20042;-76
2021/05/21 11:31:13;;;;;;;9.07;1.48;;;20.50;52.40;;;;;;5026887;28;20042;-76
2021/05/21 11:33:39;;;;;;;6.38;1.45;;;20.30;56.20;;;;;;5027255;28;20568;-76
2021/05/21 11:36:07;;;;;;;8.05;1.73;;;20.10;58.10;;;;;;5011099;28;20037;-79
2021/05/21 11:38:33;;;;;;;6.53;1.70;;;20.10;58.90;;;;;;5013178;28;20029;-77
2021/05/21 11:40:59;;;;;;;7.78;1.90;;;20.00;59.50;;;;;;5026376;28;20050;-77
2021/05/21 11:43:26;;;;;;;7.50;1.70;;;19.40;60.80;;;;;;5012346;28;20525;-75
2021/05/21 11:45:53;;;;;;;9.43;2.40;;;19.20;61.60;;;;;;5011251;28;20343;-74
2021/05/21 11:48:31;;;;;;;9.57;2.22;;;19.40;61.80;;;;;;5011178;28;20034;-76
2021/05/21 11:50:57;;;;;;;11.20;2.35;;;19.20;63.30;;;;;;5011014;28;20032;-77
2021/05/21 11:53:23;;;;;;;6.78;2.03;;;19.30;63.70;;;;;;5028439;28;20057;-76
2021/05/21 11:55:50;;;;;;;6.93;2.10;;;19.50;63.40;;;;;;5026731;28;20058;-75
2021/05/21 11:58:34;;;;;;;8.95;2.35;;;19.50;63.40;;;;;;5011268;28;20037;-74
2021/05/21 12:01:01;;;;;;;9.55;2.05;;;19.60;63.30;;;;;;5011369;28;20034;-77
2021/05/21 12:03:39;;;;;;;5.90;1.52;;;19.60;63.40;;;;;;5011226;28;20030;-77
2021/05/21 12:06:06;;;;;;;7.18;1.83;;;19.80;63.70;;;;;;5026688;28;20364;-76
2021/05/21 12:08:35;;;;;;;9.25;2.03;;;19.90;63.30;;;;;;5029437;28;20426;-75
2021/05/21 12:11:01;;;;;;;9.80;2.10;;;20.00;63.00;;;;;;5010892;28;20060;-76
2021/05/21 12:13:30;;;;;;;10.02;1.60;;;19.80;63.60;;;;;;5026140;28;20030;-78
2021/05/21 12:16:30;;;;;;;6.78;1.83;;;19.90;64.00;;;;;;5010676;28;20117;-75
2021/05/21 12:18:56;;;;;;;11.13;2.13;;;19.80;64.40;;;;;;4999078;28;20029;-78
2021/05/21 12:21:30;;;;;;;8.02;2.00;;;19.80;63.80;;;;;;5026358;28;20351;-76
2021/05/21 12:23:57;;;;;;;6.97;1.90;;;20.10;63.30;;;;;;5025858;28;20026;-74
2021/05/21 12:26:32;;;;;;;9.63;2.33;;;20.10;62.70;;;;;;5011885;28;20657;-75
2021/05/21 12:28:59;;;;;;;6.10;1.98;;;20.00;63.60;;;;;;5010504;28;20073;-76
2021/05/21 12:31:30;;;;;;;8.20;2.05;;;19.70;62.70;;;;;;5025745;28;20061;-77
2021/05/21 12:33:58;;;;;;;15.38;2.67;;;19.50;64.40;;;;;;5010864;28;20030;-78
2021/05/21 12:36:27;;;;;;;11.53;2.33;;;19.50;64.40;;;;;;5026152;28;20034;-77
2021/05/21 12:38:58;;;;;;;10.88;4.25;;;19.60;64.30;;;;;;5011832;28;20735;-77
2021/05/21 12:41:39;;;;;;;10.40;2.35;;;19.60;63.30;;;;;;5010687;28;20415;-78
2021/05/21 12:44:16;;;;;;;20.35;8.93;;;19.30;63.70;;;;;;5010652;28;20042;-77
2021/05/21 12:46:45;;;;;;;8.75;1.77;;;19.50;64.80;;;;;;5010587;28;20349;-78
2021/05/21 12:49:11;;;;;;;9.55;1.63;;;19.60;64.20;;;;;;4980474;28;20042;-79
2021/05/21 12:51:37;;;;;;;10.20;1.65;;;19.80;64.10;;;;;;4997877;28;20045;-77
2021/05/21 12:54:27;;;;;;;5.28;1.42;;;19.90;63.00;;;;;;5009923;28;20014;-78